createdAt,value
2023-01-25T00:02:15.552Z,101635.03
2023-01-25T00:04:43.817Z,101640.31
2023-01-25T00:07:11.429Z,101629.72
2023-01-25T00:09:39.995Z,101628.59
2023-01-25T00:12:07.860Z,101632.34
2023-01-25T00:14:35.829Z,101634.19
2023-01-25T00:17:03.451Z,101627.56
2023-01-25T00:19:31.363Z,101630.22
2023-01-25T00:21:59.063Z,101619.59
2023-01-25T00:24:27.098Z,101624.38
2023-01-25T00:26:54.919Z,101626.50
2023-01-25T00:29:23.291Z,101620.13
2023-01-25T00:32:15.448Z,101629.72
2023-01-25T00:34:47.269Z,101630.50
2023-01-25T00:37:24.340Z,101627.03
2023-01-25T00:39:52.827Z,101629.16
2023-01-25T00:42:21.425Z,101630.19
2023-01-25T00:44:49.898Z,101636.03
2023-01-25T00:47:17.887Z,101631.78
2023-01-25T00:49:46.764Z,101632.34
2023-01-25T00:52:15.087Z,101626.47
2023-01-25T00:54:43.356Z,101624.88
2023-01-25T00:57:11.328Z,101625.94
2023-01-25T00:59:39.338Z,101616.91
2023-01-25T01:02:06.917Z,101624.88
2023-01-25T01:04:34.796Z,101621.41
2023-01-25T01:07:02.719Z,101625.94
2023-01-25T01:09:30.774Z,101616.66
2023-01-25T01:11:58.851Z,101623.78
2023-01-25T01:14:28.850Z,101622.75
2023-01-25T01:16:58.070Z,101622.22
2023-01-25T01:19:26.149Z,101619.59
2023-01-25T01:21:53.785Z,101621.97
2023-01-25T01:24:23.175Z,101622.75
2023-01-25T01:26:50.708Z,101615.31
2023-01-25T01:29:18.906Z,101622.22
2023-01-25T01:31:46.782Z,101621.97
2023-01-25T01:34:21.029Z,101617.72
2023-01-25T01:36:48.684Z,101625.13
2023-01-25T01:39:17.798Z,101614.00
2023-01-25T01:41:45.819Z,101619.84
2023-01-25T01:44:24.300Z,101621.19
2023-01-25T01:46:59.300Z,101616.69
2023-01-25T01:49:33.515Z,101617.47
2023-01-25T01:52:16.449Z,101615.88
2023-01-25T01:54:59.567Z,101620.13
2023-01-25T01:57:43.611Z,101618.00
2023-01-25T02:00:24.725Z,101627.31
2023-01-25T02:02:52.907Z,101621.19
2023-01-25T02:05:50.563Z,101623.84
2023-01-25T02:08:20.013Z,101628.03
2023-01-25T02:10:49.411Z,101632.28
2023-01-25T02:13:19.315Z,101634.09
2023-01-25T02:15:51.062Z,101628.50
2023-01-25T02:18:19.945Z,101639.13
2023-01-25T02:20:52.646Z,101637.81
2023-01-25T02:23:48.348Z,101634.91
2023-01-25T02:26:19.207Z,101634.09
2023-01-25T02:29:11.819Z,101638.06
2023-01-25T02:31:39.927Z,101621.06
2023-01-25T02:34:07.797Z,101625.88
2023-01-25T02:36:36.195Z,101637.59
2023-01-25T02:39:13.788Z,101631.47
2023-01-25T02:41:44.947Z,101626.44
2023-01-25T02:44:15.812Z,101627.78
2023-01-25T02:46:48.007Z,101629.09
2023-01-25T02:49:16.446Z,101626.72
2023-01-25T02:51:48.937Z,101625.16
2023-01-25T02:54:20.283Z,101635.53
2023-01-25T02:56:48.414Z,101632.34
2023-01-25T02:59:16.727Z,101630.97
2023-01-25T03:01:49.699Z,101622.22
2023-01-25T03:04:17.778Z,101616.09
2023-01-25T03:06:45.900Z,101615.28
2023-01-25T03:09:13.588Z,101621.94
2023-01-25T03:11:46.402Z,101616.63
2023-01-25T03:14:14.232Z,101618.72
2023-01-25T03:16:42.305Z,101613.16
2023-01-25T03:19:11.345Z,101614.75
2023-01-25T03:21:41.499Z,101618.69
2023-01-25T03:24:11.325Z,101622.19
2023-01-25T03:27:03.576Z,101614.97
2023-01-25T03:29:54.056Z,101620.50
2023-01-25T03:32:24.235Z,101613.91
2023-01-25T03:34:52.956Z,101615.22
2023-01-25T03:37:21.962Z,101610.47
2023-01-25T03:39:50.649Z,101610.47
2023-01-25T03:42:21.609Z,101605.16
2023-01-25T03:44:54.225Z,101606.22
2023-01-25T03:47:22.367Z,101606.50
2023-01-25T03:49:49.963Z,101608.91
2023-01-25T03:52:20.181Z,101612.63
2023-01-25T03:54:48.721Z,101607.84
2023-01-25T03:57:16.690Z,101608.44
2023-01-25T03:59:59.545Z,101613.19
2023-01-25T04:02:27.818Z,101615.31
2023-01-25T04:04:55.975Z,101601.00
2023-01-25T04:07:24.049Z,101606.28
2023-01-25T04:09:52.189Z,101597.50
2023-01-25T04:12:20.417Z,101614.25
2023-01-25T04:14:48.195Z,101607.31
2023-01-25T04:17:24.315Z,101596.69
2023-01-25T04:19:54.905Z,101604.66
2023-01-25T04:22:27.401Z,101593.78
2023-01-25T04:24:57.127Z,101592.72
2023-01-25T04:27:25.064Z,101597.50
2023-01-25T04:30:04.268Z,101594.06
2023-01-25T04:32:36.964Z,101587.69
2023-01-25T04:35:10.663Z,101580.53
2023-01-25T04:37:38.981Z,101584.78
2023-01-25T04:40:08.737Z,101583.47
2023-01-25T04:42:42.649Z,101586.38
2023-01-25T04:45:11.381Z,101585.06
2023-01-25T04:47:39.740Z,101583.97
2023-01-25T04:50:08.362Z,101591.41
2023-01-25T04:52:36.409Z,101577.09
2023-01-25T04:55:04.227Z,101584.78
2023-01-25T04:57:38.082Z,101589.53
2023-01-25T05:00:06.891Z,101592.22
2023-01-25T05:02:36.014Z,101590.91
2023-01-25T05:05:04.168Z,101595.66
2023-01-25T05:07:32.743Z,101593.00
2023-01-25T05:10:00.475Z,101589.53
2023-01-25T05:12:28.633Z,101586.63
2023-01-25T05:15:01.057Z,101587.69
2023-01-25T05:17:29.184Z,101585.59
2023-01-25T05:19:56.903Z,101591.69
2023-01-25T05:22:25.985Z,101589.28
2023-01-25T05:24:54.335Z,101596.72
2023-01-25T05:27:23.286Z,101599.91
2023-01-25T05:30:11.571Z,101598.59
2023-01-25T05:32:56.560Z,101602.56
2023-01-25T05:35:25.497Z,101594.88
2023-01-25T05:37:58.779Z,101595.69
2023-01-25T05:40:27.955Z,101593.00
2023-01-25T05:43:00.169Z,101598.31
2023-01-25T05:45:30.274Z,101602.81
2023-01-25T05:47:59.877Z,101601.22
2023-01-25T05:50:27.647Z,101594.59
2023-01-25T05:53:05.527Z,101597.00
2023-01-25T05:55:37.084Z,101604.94
2023-01-25T05:58:09.810Z,101601.50
2023-01-25T06:00:39.497Z,101608.69
2023-01-25T06:03:07.832Z,101616.63
2023-01-25T06:05:37.797Z,101607.06
2023-01-25T06:08:06.094Z,101602.56
2023-01-25T06:10:43.257Z,101617.44
2023-01-25T06:13:11.695Z,101609.72
2023-01-25T06:15:39.423Z,101614.25
2023-01-25T06:18:30.639Z,101618.75
2023-01-25T06:21:17.743Z,101626.47
2023-01-25T06:23:45.744Z,101620.66
2023-01-25T06:26:15.730Z,101618.50
2023-01-25T06:28:43.738Z,101617.19
2023-01-25T06:31:19.527Z,101618.28
2023-01-25T06:33:52.301Z,101621.47
2023-01-25T06:36:22.959Z,101623.31
2023-01-25T06:38:52.629Z,101616.44
2023-01-25T06:41:21.065Z,101616.97
2023-01-25T06:43:52.199Z,101613.81
2023-01-25T06:46:20.682Z,101616.47
2023-01-25T06:48:49.856Z,101617.00
2023-01-25T06:51:18.010Z,101625.50
2023-01-25T06:53:47.624Z,101615.91
2023-01-25T06:56:21.892Z,101611.69
2023-01-25T06:58:50.716Z,101609.03
2023-01-25T07:01:30.500Z,101614.88
2023-01-25T07:03:59.919Z,101609.09
2023-01-25T07:06:35.612Z,101617.59
2023-01-25T07:09:10.902Z,101615.22
2023-01-25T07:12:51.770Z,101620.03
2023-01-25T07:15:21.692Z,101614.69
2023-01-25T07:17:51.419Z,101620.00
2023-01-25T07:20:19.446Z,101614.94
2023-01-25T07:22:47.104Z,101617.59
2023-01-25T07:25:15.479Z,101606.19
2023-01-25T07:27:43.034Z,101606.97
2023-01-25T07:30:11.811Z,101608.59
2023-01-25T07:36:04.448Z,101608.59
2023-01-25T07:38:32.589Z,101595.84
2023-01-25T07:41:09.916Z,101602.19
2023-01-25T07:43:39.328Z,101603.81
2023-01-25T07:46:29.072Z,101610.16
2023-01-25T07:49:27.832Z,101614.44
2023-01-25T07:51:55.831Z,101617.59
2023-01-25T07:54:23.415Z,101615.47
2023-01-25T07:57:01.757Z,101607.78
2023-01-25T07:59:38.295Z,101606.97
2023-01-25T08:02:10.577Z,101613.34
2023-01-25T08:04:39.190Z,101607.00
2023-01-25T08:07:07.132Z,101609.66
2023-01-25T08:10:11.995Z,101602.47
2023-01-25T08:13:01.726Z,101600.66
2023-01-25T08:16:01.744Z,101607.53
2023-01-25T08:19:15.346Z,101607.78
2023-01-25T08:22:10.746Z,101606.22
2023-01-25T08:24:38.884Z,101600.63
2023-01-25T08:27:06.566Z,101591.59
2023-01-25T08:29:34.922Z,101588.16
2023-01-25T08:32:04.567Z,101578.84
2023-01-25T08:34:32.985Z,101577.53
2023-01-25T08:37:01.410Z,101579.41
2023-01-25T08:43:31.384Z,101592.50
2023-01-25T08:46:00.374Z,101584.78
2023-01-25T08:48:28.079Z,101579.47
2023-01-25T08:50:56.387Z,101597.00
2023-01-25T08:53:23.963Z,101588.47
2023-01-25T08:55:51.944Z,101581.06
2023-01-25T08:58:22.105Z,101597.00
2023-01-25T09:00:50.237Z,101586.34
2023-01-25T09:03:18.356Z,101584.50
2023-01-25T09:05:46.724Z,101586.59
2023-01-25T09:08:14.525Z,101578.88
2023-01-25T09:10:42.716Z,101578.88
2023-01-25T09:13:10.435Z,101573.56
2023-01-25T09:15:38.484Z,101583.66
2023-01-25T09:18:06.942Z,101574.91
2023-01-25T09:24:08.012Z,101573.53
2023-01-25T09:26:42.982Z,101583.13
2023-01-25T09:29:12.369Z,101574.88
2023-01-25T09:31:41.179Z,101579.16
2023-01-25T09:34:15.598Z,101574.38
2023-01-25T09:36:43.432Z,101580.22
2023-01-25T09:39:29.279Z,101577.31
2023-01-25T09:42:14.971Z,101569.06
2023-01-25T09:45:12.275Z,101566.94
2023-01-25T09:48:04.687Z,101563.50
2023-01-25T09:51:17.088Z,101556.03
2023-01-25T09:53:57.307Z,101554.44
2023-01-25T09:56:34.037Z,101559.75
2023-01-25T09:59:23.469Z,101557.63
2023-01-25T10:02:55.192Z,101550.75
2023-01-25T10:05:30.779Z,101545.69
2023-01-25T10:08:31.969Z,101543.28
2023-01-25T10:11:31.699Z,101533.44
2023-01-25T10:14:00.544Z,101539.59
2023-01-25T10:17:28.649Z,101539.03
2023-01-25T10:20:26.771Z,101534.25
2023-01-25T10:23:22.639Z,101531.59
2023-01-25T10:26:00.645Z,101515.09
2023-01-25T10:28:53.735Z,101517.75
2023-01-25T10:31:46.672Z,101519.63
2023-01-25T10:34:56.697Z,101515.63
2023-01-25T10:37:35.954Z,101505.25
2023-01-25T10:40:12.855Z,101502.63
2023-01-25T10:43:02.999Z,101497.31
2023-01-25T10:45:30.932Z,101499.69
2023-01-25T10:48:12.410Z,101487.97
2023-01-25T10:50:43.656Z,101497.81
2023-01-25T10:53:21.112Z,101490.09
2023-01-25T10:56:19.332Z,101482.41
2023-01-25T10:58:51.771Z,101475.25
2023-01-25T11:01:29.109Z,101473.09
2023-01-25T11:03:59.352Z,101465.09
2023-01-25T11:06:46.567Z,101465.63
2023-01-25T11:09:22.988Z,101468.25
2023-01-25T11:11:56.811Z,101454.41
2023-01-25T11:14:27.894Z,101455.19
2023-01-25T11:16:57.828Z,101452.53
2023-01-25T11:19:39.897Z,101454.41
2023-01-25T11:22:29.439Z,101449.13
2023-01-25T11:24:56.950Z,101443.53
2023-01-25T11:27:27.481Z,101440.06
2023-01-25T11:30:21.158Z,101448.03
2023-01-25T11:32:49.336Z,101440.06
2023-01-25T11:35:25.834Z,101438.72
2023-01-25T11:38:17.252Z,101435.25
2023-01-25T11:40:53.913Z,101426.97
2023-01-25T11:43:30.818Z,101425.66
2023-01-25T11:46:42.041Z,101416.31
2023-01-25T11:49:30.182Z,101405.97
2023-01-25T11:52:27.481Z,101407.78
2023-01-25T11:55:06.678Z,101400.66
2023-01-25T11:57:55.755Z,101399.28
2023-01-25T12:00:53.775Z,101399.03
2023-01-25T12:04:00.530Z,101386.25
2023-01-25T12:06:50.378Z,101386.78
2023-01-25T12:09:45.612Z,101379.91
2023-01-25T12:12:46.489Z,101368.44
2023-01-25T12:15:34.581Z,101374.78
2023-01-25T12:18:50.140Z,101360.06
2023-01-25T12:21:39.591Z,101367.00
2023-01-25T12:24:53.014Z,101370.16
2023-01-25T12:27:41.008Z,101359.56
2023-01-25T12:30:36.882Z,101362.75
2023-01-25T12:33:30.600Z,101365.44
2023-01-25T12:36:45.186Z,101359.84
2023-01-25T12:39:13.591Z,101357.50
2023-01-25T12:42:15.340Z,101349.00
2023-01-25T12:44:47.913Z,101346.34
2023-01-25T12:47:49.185Z,101351.13
2023-01-25T12:50:42.268Z,101347.41
2023-01-25T12:53:25.188Z,101344.47
2023-01-25T12:55:53.807Z,101340.75
2023-01-25T12:58:49.669Z,101344.47
2023-01-25T13:01:35.550Z,101343.69
2023-01-25T13:04:38.261Z,101343.69
2023-01-25T13:07:33.720Z,101339.97
2023-01-25T13:10:20.512Z,101332.50
2023-01-25T13:13:27.542Z,101327.16
2023-01-25T13:15:57.166Z,101331.41
2023-01-25T13:18:31.237Z,101338.06
2023-01-25T13:21:06.522Z,101334.63
2023-01-25T13:23:44.186Z,101337.28
2023-01-25T13:26:21.900Z,101334.09
2023-01-25T13:28:59.650Z,101335.44
2023-01-25T13:31:52.111Z,101334.66
2023-01-25T13:34:55.454Z,101328.28
2023-01-25T13:37:35.197Z,101330.41
2023-01-25T13:40:26.288Z,101329.38
2023-01-25T13:43:17.145Z,101330.16
2023-01-25T13:45:47.151Z,101328.56
2023-01-25T13:48:25.073Z,101325.63
2023-01-25T13:51:00.858Z,101318.19
2023-01-25T13:53:35.460Z,101321.91
2023-01-25T13:56:04.093Z,101318.44
2023-01-25T13:58:48.001Z,101318.69
2023-01-25T14:01:19.926Z,101313.59
2023-01-25T14:03:51.437Z,101308.53
2023-01-25T14:06:27.294Z,101317.56
2023-01-25T14:08:59.801Z,101307.16
2023-01-25T14:11:34.483Z,101306.59
2023-01-25T14:14:18.677Z,101322.34
2023-01-25T14:16:46.777Z,101318.41
2023-01-25T14:19:29.022Z,101303.78
2023-01-25T14:22:28.380Z,101301.13
2023-01-25T14:25:22.649Z,101301.66
2023-01-25T14:28:06.751Z,101306.50
2023-01-25T14:30:36.689Z,101303.84
2023-01-25T14:33:28.711Z,101300.16
2023-01-25T14:36:24.599Z,101293.53
2023-01-25T14:38:53.514Z,101290.88
2023-01-25T14:41:43.773Z,101290.38
2023-01-25T14:44:16.485Z,101286.69
2023-01-25T14:46:44.238Z,101292.03
2023-01-25T14:49:26.904Z,101286.97
2023-01-25T14:52:05.320Z,101286.16
2023-01-25T14:54:45.894Z,101281.09
2023-01-25T14:57:38.137Z,101285.13
2023-01-25T15:00:31.864Z,101292.34
2023-01-25T15:03:06.999Z,101279.06
2023-01-25T15:05:36.703Z,101277.22
2023-01-25T15:08:07.421Z,101279.63
2023-01-25T15:10:38.226Z,101280.16
2023-01-25T15:13:14.810Z,101262.91
2023-01-25T15:16:03.972Z,101262.91
2023-01-25T15:18:48.474Z,101263.41
2023-01-25T15:21:27.580Z,101264.16
2023-01-25T15:23:58.821Z,101266.28
2023-01-25T15:26:29.697Z,101265.78
2023-01-25T15:29:05.338Z,101266.84
2023-01-25T15:31:37.293Z,101254.34
2023-01-25T15:34:05.754Z,101266.34
2023-01-25T15:36:33.831Z,101262.34
2023-01-25T15:39:01.760Z,101261.56
2023-01-25T15:41:29.335Z,101259.19
2023-01-25T15:43:57.138Z,101253.88
2023-01-25T15:46:28.663Z,101259.44
2023-01-25T15:48:56.518Z,101259.72
2023-01-25T15:51:24.163Z,101256.00
2023-01-25T15:53:52.721Z,101258.41
2023-01-25T15:56:28.337Z,101260.56
2023-01-25T15:59:00.789Z,101256.31
2023-01-25T16:01:30.216Z,101258.44
2023-01-25T16:04:00.024Z,101256.59
2023-01-25T16:06:30.450Z,101261.13
2023-01-25T16:09:00.181Z,101253.16
2023-01-25T16:11:28.782Z,101245.47
2023-01-25T16:13:57.961Z,101244.44
2023-01-25T16:16:26.490Z,101253.44
2023-01-25T16:18:55.249Z,101251.59
2023-01-25T16:21:22.813Z,101251.59
2023-01-25T16:23:50.665Z,101248.13
2023-01-25T16:26:25.848Z,101246.53
2023-01-25T16:28:53.894Z,101246.53
2023-01-25T16:31:32.278Z,101249.19
2023-01-25T16:34:02.211Z,101252.66
2023-01-25T16:36:31.578Z,101258.50
2023-01-25T16:39:13.458Z,101254.25
2023-01-25T16:41:41.147Z,101254.25
2023-01-25T16:44:08.933Z,101247.88
2023-01-25T16:46:36.490Z,101252.69
2023-01-25T16:49:07.022Z,101248.69
2023-01-25T16:51:36.419Z,101244.41
2023-01-25T16:54:04.242Z,101244.50
2023-01-25T16:56:33.869Z,101251.34
2023-01-25T16:59:05.460Z,101247.38
2023-01-25T17:01:33.205Z,101251.13
2023-01-25T17:04:01.396Z,101251.19
2023-01-25T17:06:32.379Z,101249.34
2023-01-25T17:09:20.456Z,101244.88
2023-01-25T17:11:49.802Z,101248.38
2023-01-25T17:14:19.642Z,101246.78
2023-01-25T17:16:50.440Z,101244.97
2023-01-25T17:19:20.211Z,101238.06
2023-01-25T17:21:47.931Z,101233.56
2023-01-25T17:24:19.667Z,101237.31
2023-01-25T17:26:48.302Z,101231.47
2023-01-25T17:29:16.340Z,101229.88
2023-01-25T17:31:44.625Z,101224.56
2023-01-25T17:34:16.156Z,101237.06
2023-01-25T17:36:45.103Z,101232.03
2023-01-25T17:39:15.566Z,101234.94
2023-01-25T17:41:45.191Z,101229.09
2023-01-25T17:44:14.600Z,101224.81
2023-01-25T17:46:42.447Z,101228.81
2023-01-25T17:49:13.368Z,101217.63
2023-01-25T17:51:40.927Z,101215.50
2023-01-25T17:54:10.795Z,101214.16
2023-01-25T17:56:39.719Z,101211.25
2023-01-25T17:59:11.746Z,101214.94
2023-01-25T18:01:42.828Z,101214.94
2023-01-25T18:04:13.292Z,101210.72
2023-01-25T18:06:41.262Z,101205.41
2023-01-25T18:09:09.505Z,101200.88
2023-01-25T18:11:40.849Z,101199.00
2023-01-25T18:14:18.709Z,101204.31
2023-01-25T18:16:46.260Z,101199.00
2023-01-25T18:19:14.295Z,101192.66
2023-01-25T18:21:42.420Z,101200.63
2023-01-25T18:24:34.179Z,101195.31
2023-01-25T18:27:24.532Z,101197.19
2023-01-25T18:30:09.807Z,101192.16
2023-01-25T18:32:37.385Z,101191.91
2023-01-25T18:35:05.924Z,101187.94
2023-01-25T18:37:39.520Z,101182.88
2023-01-25T18:40:09.680Z,101173.09
2023-01-25T18:42:38.072Z,101173.09
2023-01-25T18:45:08.535Z,101175.22
2023-01-25T18:47:36.323Z,101167.25
2023-01-25T18:50:05.658Z,101165.97
2023-01-25T18:52:35.286Z,101161.69
2023-01-25T18:55:03.299Z,101163.56
2023-01-25T18:57:30.771Z,101160.38
2023-01-25T18:59:59.872Z,101157.22
2023-01-25T19:02:27.582Z,101159.03
2023-01-25T19:04:55.692Z,101153.47
2023-01-25T19:07:23.149Z,101151.91
2023-01-25T19:09:51.098Z,101151.59
2023-01-25T19:12:18.582Z,101145.25
2023-01-25T19:14:46.363Z,101151.09
2023-01-25T19:17:13.892Z,101146.63
2023-01-25T19:19:44.128Z,101146.63
2023-01-25T19:22:11.649Z,101144.25
2023-01-25T19:24:39.488Z,101146.91
2023-01-25T19:27:06.979Z,101142.91
2023-01-25T19:29:36.854Z,101132.81
2023-01-25T19:32:04.969Z,101127.75
2023-01-25T19:34:33.651Z,101124.28
2023-01-25T19:37:01.127Z,101117.66
2023-01-25T19:39:29.060Z,101114.72
2023-01-25T19:41:56.856Z,101109.16
2023-01-25T19:44:25.310Z,101109.13
2023-01-25T19:46:52.997Z,101100.88
2023-01-25T19:49:22.413Z,101105.91
2023-01-25T19:51:53.359Z,101095.03
2023-01-25T19:54:21.904Z,101098.22
2023-01-25T19:56:54.367Z,101099.84
2023-01-25T19:59:25.829Z,101104.13
2023-01-25T20:01:53.982Z,101105.69
2023-01-25T20:04:24.453Z,101108.34
2023-01-25T20:06:53.179Z,101102.50
2023-01-25T20:09:32.399Z,101097.75
2023-01-25T20:12:04.545Z,101090.28
2023-01-25T20:14:51.499Z,101084.47
2023-01-25T20:17:19.825Z,101090.31
2023-01-25T20:19:48.228Z,101082.34
2023-01-25T20:22:16.587Z,101079.97
2023-01-25T20:24:56.202Z,101077.63
2023-01-25T20:27:39.584Z,101071.75
2023-01-25T20:30:12.088Z,101070.72
2023-01-25T20:32:40.755Z,101071.25
2023-01-25T20:35:21.958Z,101068.06
2023-01-25T20:37:59.524Z,101064.06
2023-01-25T20:40:27.938Z,101064.38
2023-01-25T20:42:56.174Z,101056.91
2023-01-25T20:45:33.011Z,101059.31
2023-01-25T20:48:05.548Z,101055.03
2023-01-25T20:51:02.131Z,101053.69
2023-01-25T20:53:54.936Z,101050.50
2023-01-25T20:56:51.618Z,101052.88
2023-01-25T20:59:44.201Z,101046.81
2023-01-25T21:03:02.625Z,101041.53
2023-01-25T21:05:31.971Z,101038.38
2023-01-25T21:08:00.103Z,101039.41
2023-01-25T21:10:28.483Z,101039.41
2023-01-25T21:12:56.576Z,101037.25
2023-01-25T21:15:25.694Z,101034.09
2023-01-25T21:18:00.865Z,101029.56
2023-01-25T21:20:36.323Z,101034.09
2023-01-25T21:23:05.733Z,101022.97
2023-01-25T21:26:31.926Z,101023.47
2023-01-25T21:29:46.810Z,101026.38
2023-01-25T21:32:45.996Z,101019.22
2023-01-25T21:35:29.812Z,101018.91
2023-01-25T21:38:14.292Z,101015.22
2023-01-25T21:40:43.062Z,101014.94
2023-01-25T21:43:22.432Z,101010.97
2023-01-25T21:46:14.280Z,101005.94
2023-01-25T21:49:01.200Z,101010.19
2023-01-25T21:52:01.322Z,100991.63
2023-01-25T21:55:16.177Z,100992.16
2023-01-25T21:58:44.506Z,100987.97
2023-01-25T22:01:37.480Z,100981.06
2023-01-25T22:04:07.449Z,100978.16
2023-01-25T22:06:57.403Z,100978.91
2023-01-25T22:09:27.925Z,100978.91
2023-01-25T22:11:59.660Z,100972.59
2023-01-25T22:14:39.438Z,100980.03
2023-01-25T22:17:25.945Z,100974.97
2023-01-25T22:19:55.024Z,100960.34
2023-01-25T22:22:23.165Z,100966.75
2023-01-25T22:24:50.776Z,100963.00
2023-01-25T22:27:21.498Z,100956.09
2023-01-25T22:29:49.204Z,100952.13
2023-01-25T22:32:17.862Z,100941.78
2023-01-25T22:34:45.588Z,100943.63
2023-01-25T22:37:13.638Z,100938.56
2023-01-25T22:39:41.246Z,100937.75
2023-01-25T22:42:09.171Z,100932.72
2023-01-25T22:44:36.673Z,100921.09
2023-01-25T22:47:04.647Z,100925.81
2023-01-25T22:49:32.310Z,100920.50
2023-01-25T22:52:00.191Z,100920.00
2023-01-25T22:54:27.783Z,100913.69
2023-01-25T22:56:55.811Z,100915.25
2023-01-25T22:59:23.469Z,100912.34
2023-01-25T23:01:51.487Z,100909.97
2023-01-25T23:04:19.282Z,100906.03
2023-01-25T23:06:48.009Z,100897.78
2023-01-25T23:09:15.659Z,100902.00
2023-01-25T23:11:43.866Z,100888.22
2023-01-25T23:14:31.183Z,100892.47
2023-01-25T23:17:17.773Z,100881.91
2023-01-25T23:19:45.966Z,100884.00
2023-01-25T23:22:14.922Z,100886.16
2023-01-25T23:24:43.670Z,100884.59
2023-01-25T23:27:12.683Z,100888.28
2023-01-25T23:29:40.375Z,100872.91
2023-01-25T23:32:08.374Z,100874.50
2023-01-25T23:34:37.669Z,100868.66
2023-01-25T23:37:05.919Z,100871.28
2023-01-25T23:39:33.853Z,100861.19
2023-01-25T23:42:02.916Z,100865.97
2023-01-25T23:44:31.360Z,100858.53
2023-01-25T23:46:59.306Z,100858.00
2023-01-25T23:49:26.933Z,100856.63
2023-01-25T23:51:55.188Z,100844.41
2023-01-25T23:54:22.884Z,100853.66
2023-01-25T23:56:51.073Z,100858.97
2023-01-25T23:59:18.987Z,100852.59
